Time;durP1;ratioP1;P1;durP2;ratioP2;P2;SDS_P1;SDS_P2;PMS_P1;PMS_P2;Temp;Humidity;BMP_temperature;BMP_pressure;BME280_temperature;BME280_humidity;BME280_pressure;Samples;Min_cycle;Max_cycle;Signal;HPM_P1;HPM_P2
2020/12/30 00:01:26;;;;;;;;;;;3.70;99.90;;;;;;5101159;28;19916;-83
2020/12/30 00:03:52;;;;;;;;;;;3.70;99.90;;;;;;5099924;28;19968;-83
2020/12/30 00:06:18;;;;;;;;;;;3.70;99.90;;;;;;5085229;28;19923;-83
2020/12/30 00:08:44;;;;;;;;;;;3.70;99.90;;;;;;5100302;28;19916;-82
2020/12/30 00:11:09;;;;;;;;;;;3.70;99.90;;;;;;5083606;28;19948;-82
2020/12/30 00:13:35;;;;;;;;;;;3.70;99.90;;;;;;5087868;28;19919;-83
2020/12/30 00:16:00;;;;;;;;;;;3.70;99.90;;;;;;5102784;28;20329;-83
2020/12/30 00:18:26;;;;;;;;;;;3.70;99.90;;;;;;5099629;28;19912;-83
2020/12/30 00:20:51;;;;;;;;;;;3.70;99.90;;;;;;5118367;28;19923;-83
2020/12/30 00:23:17;;;;;;;;;;;3.70;99.90;;;;;;5099594;28;19943;-83
2020/12/30 00:25:42;;;;;;;;;;;3.70;99.90;;;;;;5115837;28;19987;-83
2020/12/30 00:28:08;;;;;;;;;;;3.70;99.90;;;;;;5088340;28;19950;-82
2020/12/30 00:30:33;;;;;;;;;;;3.70;99.90;;;;;;5082400;28;19912;-83
2020/12/30 00:32:59;;;;;;;;;;;3.70;99.90;;;;;;5082480;28;19923;-83
2020/12/30 00:35:24;;;;;;;;;;;3.80;99.90;;;;;;5094740;28;19912;-83
2020/12/30 00:37:50;;;;;;;;;;;3.80;99.90;;;;;;5094039;28;19912;-83
2020/12/30 00:40:15;;;;;;;;;;;3.80;99.90;;;;;;5093231;28;20354;-83
2020/12/30 00:42:41;;;;;;;;;;;3.80;99.90;;;;;;5100306;28;19931;-83
2020/12/30 00:45:07;;;;;;;;;;;3.90;99.90;;;;;;5113967;28;19916;-83
2020/12/30 00:47:33;;;;;;;;;;;3.90;99.90;;;;;;5114532;28;20379;-82
2020/12/30 00:49:58;;;;;;;;;;;3.90;99.90;;;;;;5098576;28;19913;-82
2020/12/30 00:52:24;;;;;;;;;;;3.90;99.90;;;;;;5101518;28;19916;-82
2020/12/30 00:54:49;;;;;;;;;;;4.00;99.90;;;;;;5081579;28;19912;-83
2020/12/30 00:57:14;;;;;;;;;;;4.00;99.90;;;;;;5087547;28;19935;-83
2020/12/30 00:59:40;;;;;;;;;;;4.00;99.90;;;;;;5082034;28;19918;-83
2020/12/30 01:02:05;;;;;;;;;;;4.00;99.90;;;;;;5100223;28;19913;-83
2020/12/30 01:04:31;;;;;;;;;;;4.00;99.90;;;;;;5086494;28;19912;-83
2020/12/30 01:06:56;;;;;;;;;;;4.00;99.90;;;;;;5081563;28;20355;-83
2020/12/30 01:09:22;;;;;;;;;;;4.10;99.90;;;;;;5088691;28;19999;-83
2020/12/30 01:11:48;;;;;;;;;;;4.10;99.90;;;;;;5113519;28;19919;-83
2020/12/30 01:14:13;;;;;;;;;;;4.10;99.90;;;;;;5083787;28;19930;-83
2020/12/30 01:16:39;;;;;;;;;;;4.10;99.90;;;;;;5090718;28;20349;-83
2020/12/30 01:19:06;;;;;;;;;;;4.10;99.90;;;;;;5095025;28;19943;-83
2020/12/30 01:21:31;;;;;;;;;;;4.20;99.90;;;;;;5107872;28;20196;-82
2020/12/30 01:23:57;;;;;;;;;;;4.20;99.90;;;;;;5099139;28;19919;-82
2020/12/30 01:26:22;;;;;;;;;;;4.20;99.90;;;;;;5088897;28;19916;-82
2020/12/30 01:28:48;;;;;;;;;;;4.20;99.90;;;;;;5086412;28;19920;-82
2020/12/30 01:31:13;;;;;;;;;;;4.10;99.90;;;;;;5075834;28;19943;-81
2020/12/30 01:33:38;;;;;;;;;;;4.10;99.90;;;;;;5088634;28;19912;-82
2020/12/30 01:36:04;;;;;;;;;;;4.10;99.90;;;;;;5105394;28;19987;-82
2020/12/30 01:38:32;;;;;;;;;;;4.10;99.90;;;;;;5107017;28;20003;-83
2020/12/30 01:40:58;;;;;;;;;;;4.10;99.90;;;;;;5114934;28;20295;-83
2020/12/30 01:43:24;;;;;;;;;;;4.10;99.90;;;;;;5099988;28;19923;-82
2020/12/30 01:45:49;;;;;;;;;;;4.00;99.90;;;;;;5103695;28;19937;-82
2020/12/30 01:48:16;;;;;;;;;;;4.00;99.90;;;;;;5116776;28;19911;-83
2020/12/30 01:50:41;;;;;;;;;;;4.00;99.90;;;;;;5115496;28;19908;-82
2020/12/30 01:53:07;;;;;;;;;;;4.00;99.90;;;;;;5081398;28;20475;-83
2020/12/30 01:55:34;;;;;;;;;;;3.90;99.90;;;;;;5100977;28;19908;-83
2020/12/30 01:58:00;;;;;;;;;;;3.90;99.90;;;;;;5098720;28;19948;-83
2020/12/30 02:00:25;;;;;;;;;;;3.80;99.90;;;;;;5081266;28;19915;-82
2020/12/30 02:02:55;;;;;;;;;;;3.80;99.90;;;;;;5079000;28;19947;-82
2020/12/30 02:05:22;;;;;;;;;;;3.70;99.90;;;;;;5078303;28;19912;-82
2020/12/30 02:07:47;;;;;;;;;;;3.60;99.90;;;;;;5081734;28;19912;-82
2020/12/30 02:10:15;;;;;;;;;;;3.60;99.90;;;;;;5084034;28;19915;-82
2020/12/30 02:12:41;;;;;;;;;;;3.50;99.90;;;;;;5077139;28;19909;-82
2020/12/30 02:15:06;;;;;;;;;;;3.40;99.90;;;;;;5110577;28;20152;-82
2020/12/30 02:17:32;;;;;;;;;;;3.30;99.90;;;;;;5085130;28;19940;-82
2020/12/30 02:19:57;;;;;;;;;;;3.30;99.90;;;;;;5093079;28;19962;-82
2020/12/30 02:22:24;;;;;;;;;;;3.20;99.90;;;;;;5099166;28;19930;-82
2020/12/30 02:24:50;;;;;;;;;;;3.20;99.90;;;;;;5085429;28;19946;-83
2020/12/30 02:27:15;;;;;;;;;;;3.20;99.90;;;;;;5105381;28;19908;-83
2020/12/30 02:29:41;;;;;;;;;;;3.20;99.90;;;;;;5094713;28;20280;-83
2020/12/30 02:32:06;;;;;;;;;;;3.20;99.90;;;;;;5078910;28;19966;-82
2020/12/30 02:34:32;;;;;;;;;;;3.20;99.90;;;;;;5090021;28;19920;-82
2020/12/30 02:36:57;;;;;;;;;;;3.20;99.90;;;;;;5088274;28;19912;-81
2020/12/30 02:39:23;;;;;;;;;;;3.20;99.90;;;;;;5087998;28;19951;-82
2020/12/30 02:41:48;;;;;;;;;;;3.20;99.90;;;;;;5078231;28;19959;-82
2020/12/30 02:44:14;;;;;;;;;;;3.10;99.90;;;;;;5077123;28;20427;-82
2020/12/30 02:46:39;;;;;;;;;;;3.10;99.90;;;;;;5093424;28;19920;-82
2020/12/30 02:49:05;;;;;;;;;;;3.10;99.90;;;;;;5080902;28;19908;-81
2020/12/30 02:51:31;;;;;;;;;;;3.10;99.90;;;;;;5080354;28;19955;-82
2020/12/30 02:53:56;;;;;;;;;;;3.10;99.90;;;;;;5096458;28;19908;-82
2020/12/30 02:56:22;;;;;;;;;;;3.10;99.90;;;;;;5080356;28;19951;-82
2020/12/30 02:58:47;;;;;;;;;;;3.10;99.90;;;;;;5110890;28;19973;-82
2020/12/30 03:01:13;;;;;;;;;;;3.00;99.90;;;;;;5105413;28;19919;-82
2020/12/30 03:03:40;;;;;;;;;;;3.00;99.90;;;;;;5091826;28;19908;-82
2020/12/30 03:06:06;;;;;;;;;;;3.00;99.90;;;;;;5077770;28;20302;-83
2020/12/30 03:08:31;;;;;;;;;;;2.90;99.90;;;;;;5088175;28;19908;-82
2020/12/30 03:10:57;;;;;;;;;;;2.90;99.90;;;;;;5074620;28;19934;-82
2020/12/30 03:13:22;;;;;;;;;;;2.90;99.90;;;;;;5077937;28;19953;-82
2020/12/30 03:15:48;;;;;;;;;;;2.90;99.90;;;;;;5079933;28;19916;-82
2020/12/30 03:18:14;;;;;;;;;;;2.90;99.90;;;;;;5097428;28;20349;-81
2020/12/30 03:20:39;;;;;;;;;;;2.90;99.90;;;;;;5107061;28;19919;-82
2020/12/30 03:23:05;;;;;;;;;;;2.90;99.90;;;;;;5102311;28;19987;-83
2020/12/30 03:25:30;;;;;;;;;;;2.80;99.90;;;;;;5098618;28;20272;-83
2020/12/30 03:27:56;;;;;;;;;;;2.80;99.90;;;;;;5095137;28;19929;-82
2020/12/30 03:30:23;;;;;;;;;;;2.80;99.90;;;;;;5099152;28;19912;-82
2020/12/30 03:32:48;;;;;;;;;;;2.70;99.90;;;;;;5087707;28;19915;-82
2020/12/30 03:35:14;;;;;;;;;;;2.70;99.90;;;;;;5099945;28;19916;-81
2020/12/30 03:37:39;;;;;;;;;;;2.70;99.90;;;;;;5085355;28;19980;-82
2020/12/30 03:40:05;;;;;;;;;;;2.60;99.90;;;;;;5098307;28;20380;-83
2020/12/30 03:42:30;;;;;;;;;;;2.60;99.90;;;;;;5077917;28;20287;-82
2020/12/30 03:44:55;;;;;;;;;;;2.60;99.90;;;;;;5078757;28;19923;-82
2020/12/30 03:47:21;;;;;;;;;;;2.50;99.90;;;;;;5083647;28;19998;-82
2020/12/30 03:49:48;;;;;;;;;;;2.50;99.90;;;;;;5085150;28;19912;-82
2020/12/30 03:52:13;;;;;;;;;;;2.50;99.90;;;;;;5116343;28;19908;-82
2020/12/30 03:54:38;;;;;;;;;;;2.50;99.90;;;;;;5104671;28;19914;-83
2020/12/30 03:57:04;;;;;;;;;;;2.50;99.90;;;;;;5101239;28;19949;-82
2020/12/30 03:59:29;;;;;;;;;;;2.40;99.90;;;;;;5085858;28;19912;-82
2020/12/30 04:01:55;;;;;;;;;;;2.40;99.90;;;;;;5099277;28;19930;-83
2020/12/30 04:04:20;;;;;;;;;;;2.40;99.90;;;;;;5080146;28;20003;-82
2020/12/30 04:06:46;;;;;;;;;;;2.40;99.90;;;;;;5099836;28;19912;-81
2020/12/30 04:09:11;;;;;;;;;;;2.40;99.90;;;;;;5080539;28;20412;-83
2020/12/30 04:11:37;;;;;;;;;;;2.30;99.90;;;;;;5079161;28;19912;-83
2020/12/30 04:14:02;;;;;;;;;;;2.40;99.90;;;;;;5097578;28;19931;-83
2020/12/30 04:16:28;;;;;;;;;;;2.30;99.90;;;;;;5099830;28;19920;-83
2020/12/30 04:18:53;;;;;;;;;;;2.30;99.90;;;;;;5118391;28;19923;-83
2020/12/30 04:21:23;;;;;;;;;;;2.30;99.90;;;;;;5087110;28;20018;-83
2020/12/30 04:23:48;;;;;;;;;;;2.30;99.90;;;;;;5082168;28;19915;-83
2020/12/30 04:26:14;;;;;;;;;;;2.20;99.90;;;;;;5078936;28;19920;-82
2020/12/30 04:28:40;;;;;;;;;;;2.20;99.90;;;;;;5094887;28;19919;-82
2020/12/30 04:31:08;;;;;;;;;;;2.20;99.90;;;;;;5103632;28;19912;-82
2020/12/30 04:33:33;;;;;;;;;;;2.20;99.90;;;;;;5108532;28;19916;-82
2020/12/30 04:35:59;;;;;;;;;;;2.20;99.90;;;;;;5085115;28;19930;-82
2020/12/30 04:38:24;;;;;;;;;;;2.20;99.90;;;;;;5096673;28;20487;-82
2020/12/30 04:40:50;;;;;;;;;;;2.10;99.90;;;;;;5106549;28;20300;-82
2020/12/30 04:43:16;;;;;;;;;;;2.20;99.90;;;;;;5078073;28;19968;-81
2020/12/30 04:45:42;;;;;;;;;;;2.10;99.90;;;;;;5077604;28;19912;-81
2020/12/30 04:48:09;;;;;;;;;;;2.10;99.90;;;;;;5098777;28;19987;-83
2020/12/30 04:50:34;;;;;;;;;;;2.10;99.90;;;;;;5083274;28;19930;-82
2020/12/30 04:53:00;;;;;;;;;;;2.10;99.90;;;;;;5085033;28;19912;-82
2020/12/30 04:55:30;;;;;;;;;;;2.10;99.90;;;;;;5098175;28;19909;-82
2020/12/30 04:58:06;;;;;;;;;;;2.10;99.90;;;;;;5084510;28;19916;-82
2020/12/30 05:00:33;;;;;;;;;;;2.10;99.90;;;;;;5080316;28;20326;-82
2020/12/30 05:03:04;;;;;;;;;;;2.10;99.90;;;;;;5077426;28;19966;-82
2020/12/30 05:05:29;;;;;;;;;;;2.10;99.90;;;;;;5102740;28;19912;-82
2020/12/30 05:07:55;;;;;;;;;;;2.10;99.90;;;;;;5087166;28;19923;-82
2020/12/30 05:10:21;;;;;;;;;;;2.10;99.90;;;;;;5095959;28;19930;-82
2020/12/30 05:12:46;;;;;;;;;;;2.20;99.90;;;;;;5076207;28;19919;-82
2020/12/30 05:15:12;;;;;;;;;;;2.20;99.90;;;;;;5072050;28;19908;-82
2020/12/30 05:17:39;;;;;;;;;;;2.30;99.90;;;;;;5078759;28;19944;-82
2020/12/30 05:20:07;;;;;;;;;;;2.40;99.90;;;;;;5089739;28;19908;-82
2020/12/30 05:22:33;;;;;;;;;;;2.40;99.90;;;;;;5085767;28;19907;-82
2020/12/30 05:25:01;;;;;;;;;;;2.50;99.90;;;;;;5116734;28;20340;-82
2020/12/30 05:27:27;;;;;;;;;;;2.50;99.90;;;;;;5082695;28;19963;-82
2020/12/30 05:29:52;;;;;;;;;;;2.50;99.90;;;;;;5078025;28;19947;-82
2020/12/30 05:32:18;;;;;;;;;;;2.50;99.90;;;;;;5074144;28;19916;-82
2020/12/30 05:34:44;;;;;;;;;;;2.50;99.90;;;;;;5089354;28;19916;-82
2020/12/30 05:37:10;;;;;;;;;;;2.50;99.90;;;;;;5079810;28;19920;-81
2020/12/30 05:39:36;;;;;;;;;;;2.50;99.90;;;;;;5116557;28;19919;-82
2020/12/30 05:42:16;;;;;;;;;;;2.50;99.90;;;;;;5080093;28;19912;-83
2020/12/30 05:44:42;;;;;;;;;;;2.40;99.90;;;;;;5080484;28;19912;-82
2020/12/30 05:47:18;;;;;;;;;;;2.40;99.90;;;;;;5096653;28;20022;-82
2020/12/30 05:49:47;;;;;;;;;;;2.40;99.90;;;;;;5095969;28;20356;-81
2020/12/30 05:52:14;;;;;;;;;;;2.40;99.90;;;;;;5094234;28;19920;-81
2020/12/30 05:54:49;;;;;;;;;;;2.40;99.90;;;;;;5097139;28;19952;-82
2020/12/30 05:57:27;;;;;;;;;;;2.40;99.90;;;;;;5078216;28;19912;-83
2020/12/30 05:59:54;;;;;;;;;;;2.30;99.90;;;;;;5096613;28;19934;-82
2020/12/30 06:02:24;;;;;;;;;;;2.30;99.90;;;;;;5087956;28;19935;-82
2020/12/30 06:05:19;;;;;;;;;;;2.30;99.90;;;;;;5102138;28;20376;-82
2020/12/30 06:07:45;;;;;;;;;;;2.30;99.90;;;;;;5073811;28;19916;-82
2020/12/30 06:10:12;;;;;;;;;;;2.30;99.90;;;;;;5093024;28;19947;-82
2020/12/30 06:12:44;;;;;;;;;;;2.30;99.90;;;;;;5081545;28;19922;-83
2020/12/30 06:15:12;;;;;;;;;;;2.20;99.90;;;;;;5088266;28;19912;-82
2020/12/30 06:17:42;;;;;;;;;;;2.20;99.90;;;;;;5083375;28;19919;-81
2020/12/30 06:20:10;;;;;;;;;;;2.20;99.90;;;;;;5079757;28;19920;-81
2020/12/30 06:22:36;;;;;;;;;;;2.20;99.90;;;;;;5107301;28;19919;-82
2020/12/30 06:25:02;;;;;;;;;;;2.20;99.90;;;;;;5118846;28;19907;-82
2020/12/30 06:27:27;;;;;;;;;;;2.20;99.90;;;;;;5097024;28;19919;-82
2020/12/30 06:29:55;;;;;;;;;;;2.20;99.90;;;;;;5080133;28;19916;-81
2020/12/30 06:32:25;;;;;;;;;;;2.20;99.90;;;;;;5085438;28;20273;-81
2020/12/30 06:34:50;;;;;;;;;;;2.30;99.90;;;;;;5078854;28;19923;-81
2020/12/30 06:37:24;;;;;;;;;;;2.30;99.90;;;;;;5110632;22;19927;-79
2020/12/30 06:40:09;;;;;;;;;;;2.30;99.90;;;;;;5094834;28;19951;-80
2020/12/30 06:42:35;;;;;;;;;;;2.40;99.90;;;;;;5105131;28;20384;-79
2020/12/30 06:45:01;;;;;;;;;;;2.40;99.90;;;;;;5119236;28;19919;-80
2020/12/30 06:47:47;;;;;;;;;;;2.50;99.90;;;;;;5099770;28;19908;-79
2020/12/30 06:50:15;;;;;;;;;;;2.50;99.90;;;;;;5063845;28;19917;-80
2020/12/30 06:52:41;;;;;;;;;;;2.50;99.90;;;;;;5066837;28;20064;-78
2020/12/30 06:55:06;;;;;;;;;;;2.60;99.90;;;;;;5079893;28;19943;-80
2020/12/30 06:57:35;;;;;;;;;;;2.60;99.90;;;;;;5084279;28;19919;-79
2020/12/30 07:00:20;;;;;;;;;;;2.60;99.90;;;;;;5079056;28;19908;-81
2020/12/30 07:03:05;;;;;;;;;;;2.60;99.90;;;;;;5091643;28;19917;-77
2020/12/30 07:05:31;;;;;;;;;;;2.70;99.90;;;;;;5091722;28;19920;-80
2020/12/30 07:07:56;;;;;;;;;;;2.70;99.90;;;;;;5103781;28;19918;-77
2020/12/30 07:10:25;;;;;;;;;;;2.80;99.90;;;;;;5091676;28;19919;-79
2020/12/30 07:12:50;;;;;;;;;;;2.70;99.90;;;;;;5085947;28;19935;-79
2020/12/30 07:15:23;;;;;;;;;;;2.80;99.90;;;;;;5067810;28;19920;-80
2020/12/30 07:17:48;;;;;;;;;;;2.80;99.90;;;;;;5090948;28;19936;-80
2020/12/30 07:20:23;;;;;;;;;;;2.80;99.90;;;;;;5084094;28;19912;-79
2020/12/30 07:22:49;;;;;;;;;;;2.90;99.90;;;;;;5097451;28;19913;-80
2020/12/30 07:25:15;;;;;;;;;;;3.00;99.90;;;;;;5095703;28;19927;-80
2020/12/30 07:27:41;;;;;;;;;;;3.00;99.90;;;;;;5067740;28;19916;-80
2020/12/30 07:30:06;;;;;;;;;;;3.10;99.90;;;;;;5080224;28;19912;-81
2020/12/30 07:32:32;;;;;;;;;;;3.10;99.90;;;;;;5079952;28;20349;-80
2020/12/30 07:34:59;;;;;;;;;;;3.10;99.90;;;;;;5096797;28;19908;-79
2020/12/30 07:37:25;;;;;;;;;;;3.10;99.90;;;;;;5060018;28;19930;-80
2020/12/30 07:39:51;;;;;;;;;;;3.10;99.90;;;;;;5077609;28;19970;-79
2020/12/30 07:42:19;;;;;;;;;;;3.20;99.90;;;;;;5094337;28;19912;-81
2020/12/30 07:44:51;;;;;;;;;;;3.30;99.90;;;;;;5070581;28;19913;-80
2020/12/30 07:47:18;;;;;;;;;;;3.30;99.90;;;;;;5075272;28;19935;-79
2020/12/30 07:49:43;;;;;;;;;;;3.40;99.90;;;;;;5064506;28;19919;-83
2020/12/30 07:52:09;;;;;;;;;;;3.40;99.90;;;;;;5078573;28;19913;-80
2020/12/30 07:54:35;;;;;;;;;;;3.50;99.90;;;;;;5077595;28;19914;-82
2020/12/30 07:57:04;;;;;;;;;;;3.60;99.90;;;;;;5078658;28;19912;-83
2020/12/30 07:59:30;;;;;;;;;;;3.70;99.90;;;;;;5089425;28;19951;-80
2020/12/30 08:02:06;;;;;;;;;;;3.80;99.90;;;;;;5097221;28;19916;-80
2020/12/30 08:04:33;;;;;;;;;;;4.00;99.90;;;;;;5095156;28;19912;-80
2020/12/30 08:06:58;;;;;;;;;;;4.10;99.90;;;;;;5096432;28;20361;-80
2020/12/30 08:09:25;;;;;;;;;;;4.30;99.90;;;;;;5059662;28;19919;-80
2020/12/30 08:11:57;;;;;;;;;;;4.40;99.90;;;;;;5086539;28;19954;-80
2020/12/30 08:14:24;;;;;;;;;;;4.40;99.90;;;;;;5096203;28;19924;-82
2020/12/30 08:16:50;;;;;;;;;;;4.40;99.90;;;;;;5088416;28;20357;-80
2020/12/30 08:19:35;;;;;;;;;;;4.40;99.90;;;;;;5089192;28;19929;-83
2020/12/30 08:22:01;;;;;;;;;;;4.50;99.90;;;;;;5063789;28;21339;-82
2020/12/30 08:24:31;;;;;;;;;;;4.50;99.90;;;;;;5086675;28;19912;-79
2020/12/30 08:26:56;;;;;;;;;;;4.60;99.90;;;;;;5096927;28;20451;-81
2020/12/30 08:29:26;;;;;;;;;;;4.60;99.90;;;;;;5093203;28;20422;-81
2020/12/30 08:31:55;;;;;;;;;;;4.60;99.90;;;;;;5097198;28;20358;-83
2020/12/30 08:34:23;;;;;;;;;;;4.70;99.90;;;;;;5081175;28;20007;-82
2020/12/30 08:36:51;;;;;;;;;;;4.80;99.90;;;;;;5094819;28;19985;-84
2020/12/30 08:39:17;;;;;;;;;;;4.90;99.90;;;;;;5085613;28;20010;-80
2020/12/30 08:41:47;;;;;;;;;;;5.00;99.90;;;;;;5079700;28;19919;-82
2020/12/30 08:44:14;;;;;;;;;;;5.20;99.90;;;;;;5096430;28;19919;-81
2020/12/30 08:46:41;;;;;;;;;;;5.40;99.90;;;;;;5088383;28;19916;-82
2020/12/30 08:49:08;;;;;;;;;;;5.70;99.90;;;;;;5096177;28;19916;-83
2020/12/30 08:51:34;;;;;;;;;;;5.80;99.90;;;;;;5092347;28;19912;-83
2020/12/30 08:53:59;;;;;;;;;;;5.70;99.90;;;;;;5098960;28;19915;-82
2020/12/30 08:56:25;;;;;;;;;;;5.50;99.90;;;;;;5095980;28;20014;-80
2020/12/30 08:58:55;;;;;;;;;;;5.40;99.90;;;;;;5097106;28;19912;-82
2020/12/30 09:01:21;;;;;;;;;;;5.40;99.90;;;;;;5094142;28;20316;-81
2020/12/30 09:03:47;;;;;;;;;;;5.50;99.90;;;;;;5088805;28;19923;-79
2020/12/30 09:06:23;;;;;;;;;;;5.70;99.90;;;;;;5094349;28;19916;-81
2020/12/30 09:08:49;;;;;;;;;;;6.00;99.90;;;;;;5090670;28;19980;-80
2020/12/30 09:11:17;;;;;;;;;;;6.20;99.90;;;;;;5095385;28;20363;-80
2020/12/30 09:13:43;;;;;;;;;;;6.30;99.90;;;;;;5062971;28;19908;-83
2020/12/30 09:16:10;;;;;;;;;;;6.50;99.90;;;;;;5075590;28;19991;-82
2020/12/30 09:18:36;;;;;;;;;;;6.50;99.90;;;;;;5096405;28;19912;-80
2020/12/30 09:21:02;;;;;;;;;;;6.40;99.90;;;;;;5090981;28;20376;-80
2020/12/30 09:23:28;;;;;;;;;;;6.30;99.90;;;;;;5092370;28;19917;-80
2020/12/30 09:25:55;;;;;;;;;;;6.20;99.90;;;;;;5080520;28;19923;-83
2020/12/30 09:28:22;;;;;;;;;;;6.30;99.90;;;;;;5096555;28;19954;-80
2020/12/30 09:30:48;;;;;;;;;;;6.30;99.90;;;;;;5093815;28;19940;-83
2020/12/30 09:33:15;;;;;;;;;;;6.30;99.90;;;;;;5085612;28;19916;-81
2020/12/30 09:35:41;;;;;;;;;;;6.30;99.90;;;;;;5071841;28;19957;-81
2020/12/30 09:38:06;;;;;;;;;;;6.30;99.90;;;;;;5091445;28;19981;-81
2020/12/30 09:40:38;;;;;;;;;;;6.30;99.90;;;;;;5089317;28;19919;-83
2020/12/30 09:43:17;;;;;;;;;;;6.50;99.90;;;;;;5084184;28;20291;-80
2020/12/30 09:45:43;;;;;;;;;;;6.60;99.90;;;;;;5091655;28;19916;-81
2020/12/30 09:48:16;;;;;;;;;;;6.60;99.90;;;;;;5093137;28;19912;-82
2020/12/30 09:50:42;;;;;;;;;;;6.70;99.90;;;;;;5074687;28;19913;-82
2020/12/30 09:53:08;;;;;;;;;;;6.70;99.90;;;;;;5101697;28;19915;-82
2020/12/30 09:55:33;;;;;;;;;;;6.80;99.90;;;;;;5099340;28;19916;-83
2020/12/30 09:57:59;;;;;;;;;;;6.80;99.90;;;;;;5100167;28;19961;-81
2020/12/30 10:00:24;;;;;;;;;;;6.80;99.90;;;;;;5081983;28;19948;-79
2020/12/30 10:02:50;;;;;;;;;;;6.80;99.90;;;;;;5073507;28;19916;-80
2020/12/30 10:05:15;;;;;;;;;;;6.70;99.90;;;;;;5084603;28;19917;-80
2020/12/30 10:07:41;;;;;;;;;;;6.70;99.90;;;;;;5087652;28;20337;-79
2020/12/30 10:10:06;;;;;;;;;;;6.70;99.90;;;;;;5095910;28;19913;-82
2020/12/30 10:12:34;;;;;;;;;;;6.70;99.90;;;;;;5090797;28;19917;-80
2020/12/30 10:14:59;;;;;;;;;;;6.70;99.90;;;;;;5090718;28;19912;-81
2020/12/30 10:17:25;;;;;;;;;;;6.70;99.90;;;;;;5076990;28;20011;-82
2020/12/30 10:19:50;;;;;;;;;;;6.70;99.90;;;;;;5080378;28;19931;-80
2020/12/30 10:22:15;;;;;;;;;;;6.60;99.90;;;;;;5092263;28;19915;-81
2020/12/30 10:24:44;;;;;;;;;;;6.50;99.90;;;;;;5069903;28;20039;-83
2020/12/30 10:27:12;;;;;;;;;;;6.50;99.90;;;;;;5093697;28;20061;-81
2020/12/30 10:29:38;;;;;;;;;;;6.40;99.90;;;;;;5099198;28;19912;-82
2020/12/30 10:32:03;;;;;;;;;;;6.30;99.90;;;;;;5072121;28;20053;-81
2020/12/30 10:34:29;;;;;;;;;;;6.20;99.90;;;;;;5074820;28;19912;-82
2020/12/30 10:36:54;;;;;;;;;;;6.30;99.90;;;;;;5094272;28;20423;-82
2020/12/30 10:39:20;;;;;;;;;;;6.40;99.90;;;;;;5097912;28;19912;-80
2020/12/30 10:41:45;;;;;;;;;;;6.40;99.90;;;;;;5097528;28;20280;-81
2020/12/30 10:44:11;;;;;;;;;;;6.50;99.90;;;;;;5093155;28;19916;-81
2020/12/30 10:46:37;;;;;;;;;;;6.50;99.90;;;;;;5101607;28;20412;-81
2020/12/30 10:49:02;;;;;;;;;;;6.60;99.90;;;;;;5070639;28;19969;-80
2020/12/30 10:51:28;;;;;;;;;;;6.60;99.90;;;;;;5102154;28;19920;-78
2020/12/30 10:53:53;;;;;;;;;;;6.70;99.90;;;;;;5100523;28;20372;-81
2020/12/30 10:56:19;;;;;;;;;;;6.80;99.90;;;;;;5100784;28;20286;-81
2020/12/30 10:58:44;;;;;;;;;;;6.80;99.90;;;;;;5102313;28;19943;-81
2020/12/30 11:01:10;;;;;;;;;;;7.00;99.90;;;;;;5095450;28;19916;-81
2020/12/30 11:03:36;;;;;;;;;;;7.10;99.90;;;;;;5086275;28;19915;-81
2020/12/30 11:06:02;;;;;;;;;;;7.30;99.90;;;;;;5080729;28;19916;-80
2020/12/30 11:08:28;;;;;;;;;;;7.20;99.90;;;;;;5079293;28;20402;-82
2020/12/30 11:10:56;;;;;;;;;;;7.20;99.90;;;;;;5078673;28;19909;-81
2020/12/30 11:13:21;;;;;;;;;;;7.10;99.90;;;;;;5074188;28;19958;-81
2020/12/30 11:15:48;;;;;;;;;;;7.10;99.90;;;;;;5100462;28;19912;-82
2020/12/30 11:18:13;;;;;;;;;;;7.00;99.90;;;;;;5089628;28;19955;-81
2020/12/30 11:20:39;;;;;;;;;;;6.90;99.90;;;;;;5093673;28;20147;-82
2020/12/30 11:23:04;;;;;;;;;;;6.90;99.90;;;;;;5085317;28;19922;-82
2020/12/30 11:25:30;;;;;;;;;;;6.90;99.90;;;;;;5096076;28;19946;-80
2020/12/30 11:27:55;;;;;;;;;;;6.90;99.90;;;;;;5091706;28;19916;-80
2020/12/30 11:30:21;;;;;;;;;;;7.00;99.90;;;;;;5100627;28;19971;-82
2020/12/30 11:32:46;;;;;;;;;;;7.00;99.90;;;;;;5095963;28;19919;-80
2020/12/30 11:35:12;;;;;;;;;;;7.00;99.90;;;;;;5101539;28;19965;-80
2020/12/30 11:37:37;;;;;;;;;;;6.90;99.90;;;;;;5094634;28;19916;-79
2020/12/30 11:40:04;;;;;;;;;;;6.80;99.90;;;;;;5106003;28;19919;-79
2020/12/30 11:42:29;;;;;;;;;;;6.80;99.90;;;;;;5105843;28;19920;-79
2020/12/30 11:44:55;;;;;;;;;;;6.80;99.90;;;;;;5101917;28;19921;-80
2020/12/30 11:47:22;;;;;;;;;;;6.70;99.90;;;;;;5086118;28;19916;-81
2020/12/30 11:49:48;;;;;;;;;;;6.70;99.90;;;;;;5101966;28;19919;-80
2020/12/30 11:52:13;;;;;;;;;;;6.70;99.90;;;;;;5099259;28;19917;-80
2020/12/30 11:54:39;;;;;;;;;;;6.80;99.90;;;;;;5099938;28;19947;-81
2020/12/30 11:57:04;;;;;;;;;;;6.80;99.90;;;;;;5100329;28;19912;-80
2020/12/30 11:59:30;;;;;;;;;;;6.70;99.90;;;;;;5104566;28;19919;-79
2020/12/30 12:01:56;;;;;;;;;;;6.70;99.90;;;;;;5105201;28;19920;-82
2020/12/30 12:04:21;;;;;;;;;;;6.60;99.90;;;;;;5103322;28;19912;-81
2020/12/30 12:06:47;;;;;;;;;;;6.50;99.90;;;;;;5103931;28;19916;-81
2020/12/30 12:09:12;;;;;;;;;;;6.50;99.90;;;;;;5087156;28;19916;-81
2020/12/30 12:11:38;;;;;;;;;;;6.40;99.90;;;;;;5107381;28;20364;-81
2020/12/30 12:14:03;;;;;;;;;;;6.40;99.90;;;;;;5105623;28;19912;-81
2020/12/30 12:16:29;;;;;;;;;;;6.40;99.90;;;;;;5105028;28;19912;-82
2020/12/30 12:18:54;;;;;;;;;;;6.40;99.90;;;;;;5105997;28;19921;-81
2020/12/30 12:21:20;;;;;;;;;;;6.40;99.90;;;;;;5107123;28;20345;-82
2020/12/30 12:23:45;;;;;;;;;;;6.40;99.90;;;;;;5107103;28;19949;-80
2020/12/30 12:26:11;;;;;;;;;;;6.50;99.90;;;;;;5086374;28;19924;-82
2020/12/30 12:28:36;;;;;;;;;;;6.50;99.90;;;;;;5089259;28;19920;-83
2020/12/30 12:31:02;;;;;;;;;;;6.50;99.90;;;;;;5092904;28;19908;-82
2020/12/30 12:33:27;;;;;;;;;;;6.50;99.90;;;;;;5079064;28;20523;-82
2020/12/30 12:35:52;;;;;;;;;;;6.40;99.90;;;;;;5094437;28;19961;-82
2020/12/30 12:38:18;;;;;;;;;;;6.40;99.90;;;;;;5097002;28;20418;-84
2020/12/30 12:40:43;;;;;;;;;;;6.40;99.90;;;;;;5094720;28;19971;-82
2020/12/30 12:43:09;;;;;;;;;;;6.40;99.90;;;;;;5079042;28;19965;-83
2020/12/30 12:45:35;;;;;;;;;;;6.40;99.90;;;;;;5084701;28;19959;-84
2020/12/30 12:48:01;;;;;;;;;;;6.40;99.90;;;;;;5093728;28;19919;-84
2020/12/30 12:50:26;;;;;;;;;;;6.30;99.90;;;;;;5097098;28;19912;-84
2020/12/30 12:52:52;;;;;;;;;;;6.30;99.90;;;;;;5091273;28;19913;-84
2020/12/30 12:55:17;;;;;;;;;;;6.30;99.90;;;;;;5091097;28;19999;-83
2020/12/30 12:57:43;;;;;;;;;;;6.20;99.90;;;;;;5083391;28;19912;-84
2020/12/30 13:00:08;;;;;;;;;;;6.20;99.90;;;;;;5096774;28;19919;-83
2020/12/30 13:02:34;;;;;;;;;;;6.20;99.90;;;;;;5084591;28;19951;-84
2020/12/30 13:04:59;;;;;;;;;;;6.20;99.90;;;;;;5083812;28;19919;-83
2020/12/30 13:07:25;;;;;;;;;;;6.10;99.90;;;;;;5091319;28;19978;-83
2020/12/30 13:09:50;;;;;;;;;;;6.10;99.90;;;;;;5097271;28;20237;-83
2020/12/30 13:12:16;;;;;;;;;;;6.10;99.90;;;;;;5093733;28;19919;-83
2020/12/30 13:14:42;;;;;;;;;;;6.00;99.90;;;;;;5089802;28;20003;-83
2020/12/30 13:17:07;;;;;;;;;;;6.00;99.90;;;;;;5091346;28;19959;-83
2020/12/30 13:19:33;;;;;;;;;;;6.00;99.90;;;;;;5092016;28;19919;-83
2020/12/30 13:21:58;;;;;;;;;;;6.00;99.90;;;;;;5094793;28;19912;-83
2020/12/30 13:24:23;;;;;;;;;;;6.00;99.90;;;;;;5093885;28;19920;-81
2020/12/30 13:26:49;;;;;;;;;;;6.00;99.90;;;;;;5076044;28;20265;-83
2020/12/30 13:29:14;;;;;;;;;;;6.00;99.90;;;;;;5096655;28;19983;-83
2020/12/30 13:31:40;;;;;;;;;;;5.90;99.90;;;;;;5076443;28;19940;-84
2020/12/30 13:34:05;;;;;;;;;;;5.90;99.90;;;;;;5091228;28;20384;-82
2020/12/30 13:36:31;;;;;;;;;;;5.90;99.90;;;;;;5071589;28;19924;-81
2020/12/30 13:38:57;;;;;;;;;;;5.80;99.90;;;;;;5079046;28;20398;-83
2020/12/30 13:41:23;;;;;;;;;;;5.80;99.90;;;;;;5089333;28;20042;-83
2020/12/30 13:43:48;;;;;;;;;;;5.80;99.90;;;;;;5086702;28;19913;-84
2020/12/30 13:46:14;;;;;;;;;;;5.80;99.90;;;;;;5092224;28;19912;-83
2020/12/30 13:48:40;;;;;;;;;;;5.80;99.90;;;;;;5086915;28;20372;-83
2020/12/30 13:51:06;;;;;;;;;;;5.80;99.90;;;;;;5088304;28;19928;-84
2020/12/30 13:53:31;;;;;;;;;;;5.80;99.90;;;;;;5079757;28;19916;-84
2020/12/30 13:55:57;;;;;;;;;;;5.80;99.90;;;;;;5069396;28;19915;-84
2020/12/30 13:58:22;;;;;;;;;;;5.80;99.90;;;;;;5088644;28;19919;-84
2020/12/30 14:00:48;;;;;;;;;;;5.80;99.90;;;;;;5089261;28;19908;-84
2020/12/30 14:03:13;;;;;;;;;;;5.80;99.90;;;;;;5070700;28;19912;-84
2020/12/30 14:05:39;;;;;;;;;;;5.80;99.90;;;;;;5081040;28;19912;-84
2020/12/30 14:08:04;;;;;;;;;;;5.90;99.90;;;;;;5090775;28;19912;-84
2020/12/30 14:10:30;;;;;;;;;;;6.00;99.90;;;;;;5088025;28;20291;-83
2020/12/30 14:12:55;;;;;;;;;;;6.00;99.90;;;;;;5095137;28;19991;-84
2020/12/30 14:15:21;;;;;;;;;;;6.10;99.90;;;;;;5094343;28;19912;-83
2020/12/30 14:17:46;;;;;;;;;;;6.10;99.90;;;;;;5091877;28;19914;-83
2020/12/30 14:20:12;;;;;;;;;;;6.10;99.90;;;;;;5092242;28;19919;-83
2020/12/30 14:22:37;;;;;;;;;;;6.20;99.90;;;;;;5074800;28;19993;-82
2020/12/30 14:25:02;;;;;;;;;;;6.20;99.90;;;;;;5090870;28;20471;-83
2020/12/30 14:27:29;;;;;;;;;;;6.20;99.90;;;;;;5088823;28;19938;-82